createdAt,value
2023-01-22T00:01:09.063Z,3.70
2023-01-22T00:03:40.440Z,2.92
2023-01-22T00:06:09.376Z,2.88
2023-01-22T00:08:37.763Z,2.97
2023-01-22T00:11:05.262Z,3.15
2023-01-22T00:13:32.961Z,2.85
2023-01-22T00:16:00.500Z,2.83
2023-01-22T00:18:28.235Z,2.78
2023-01-22T00:20:55.877Z,2.63
2023-01-22T00:23:24.354Z,3.67
2023-01-22T00:26:13.110Z,2.67
2023-01-22T00:28:45.372Z,3.50
2023-01-22T00:31:13.923Z,3.50
2023-01-22T00:33:42.336Z,3.65
2023-01-22T00:36:16.712Z,3.72
2023-01-22T00:38:44.847Z,3.60
2023-01-22T00:41:13.232Z,4.13
2023-01-22T00:43:41.222Z,3.65
2023-01-22T00:46:10.306Z,4.35
2023-01-22T00:48:38.223Z,5.15
2023-01-22T00:51:08.786Z,9.40
2023-01-22T00:53:37.352Z,21.77
2023-01-22T00:56:04.989Z,21.90
2023-01-22T00:58:32.584Z,20.83
2023-01-22T01:01:03.167Z,17.30
2023-01-22T01:03:31.787Z,15.15
2023-01-22T01:06:06.581Z,14.40
2023-01-22T01:08:38.864Z,13.05
2023-01-22T01:11:09.659Z,6.78
2023-01-22T01:13:39.406Z,7.35
2023-01-22T01:16:14.575Z,4.88
2023-01-22T01:18:42.934Z,5.95
2023-01-22T01:21:10.691Z,6.80
2023-01-22T01:23:38.806Z,5.28
2023-01-22T01:26:11.623Z,4.82
2023-01-22T01:28:40.561Z,4.55
2023-01-22T01:31:10.882Z,6.32
2023-01-22T01:33:39.064Z,5.05
2023-01-22T01:36:12.081Z,4.80
2023-01-22T01:38:39.655Z,4.00
2023-01-22T01:41:08.139Z,5.65
2023-01-22T01:43:35.996Z,8.10
2023-01-22T01:46:05.015Z,7.70
2023-01-22T01:48:44.237Z,6.65
2023-01-22T01:51:28.323Z,4.43
2023-01-22T01:53:57.474Z,5.05
2023-01-22T01:56:28.962Z,4.65
2023-01-22T01:59:03.136Z,4.57
2023-01-22T02:01:31.948Z,4.75
2023-01-22T02:04:00.958Z,5.63
2023-01-22T02:06:28.587Z,5.00
2023-01-22T02:08:57.821Z,4.32
2023-01-22T02:11:25.503Z,4.90
2023-01-22T02:13:59.986Z,6.47
2023-01-22T02:16:27.771Z,6.40
2023-01-22T02:18:56.039Z,5.57
2023-01-22T02:21:35.550Z,5.78
2023-01-22T02:24:08.712Z,5.95
2023-01-22T02:26:36.954Z,5.85
2023-01-22T02:29:07.964Z,5.28
2023-01-22T02:31:37.492Z,4.55
2023-01-22T02:34:06.446Z,4.80
2023-01-22T02:36:37.932Z,5.32
2023-01-22T02:39:06.293Z,4.40
2023-01-22T02:41:33.705Z,4.38
2023-01-22T02:44:01.468Z,4.30
2023-01-22T02:46:30.524Z,4.93
2023-01-22T02:48:58.177Z,4.05
2023-01-22T02:51:26.696Z,4.60
2023-01-22T02:53:54.733Z,3.92
2023-01-22T02:56:22.321Z,4.00
2023-01-22T02:58:50.603Z,3.70
2023-01-22T03:01:24.963Z,4.00
2023-01-22T03:03:57.705Z,4.55
2023-01-22T03:06:27.673Z,3.63
2023-01-22T03:09:00.495Z,4.40
2023-01-22T03:11:30.748Z,4.30
2023-01-22T03:14:24.289Z,4.10
2023-01-22T03:17:12.532Z,4.55
2023-01-22T03:19:58.732Z,4.47
2023-01-22T03:22:26.287Z,4.68
2023-01-22T03:24:55.118Z,5.15
2023-01-22T03:27:26.175Z,4.90
2023-01-22T03:29:54.519Z,5.65
2023-01-22T03:32:22.449Z,5.55
2023-01-22T03:34:50.418Z,5.70
2023-01-22T03:37:17.988Z,6.32
2023-01-22T03:39:48.600Z,5.57
2023-01-22T03:42:25.337Z,5.00
2023-01-22T03:44:53.031Z,5.32
2023-01-22T03:47:20.535Z,4.80
2023-01-22T03:49:48.039Z,4.20
2023-01-22T03:52:15.425Z,4.63
2023-01-22T03:54:42.946Z,4.47
2023-01-22T03:57:11.863Z,5.20
2023-01-22T03:59:41.424Z,5.00
2023-01-22T04:02:08.674Z,5.32
2023-01-22T04:04:47.931Z,5.22
2023-01-22T04:07:15.424Z,5.75
2023-01-22T04:09:43.119Z,4.35
2023-01-22T04:12:10.630Z,4.70
2023-01-22T04:14:38.252Z,5.50
2023-01-22T04:17:05.615Z,5.60
2023-01-22T04:19:55.858Z,5.93
2023-01-22T04:22:52.743Z,6.65
2023-01-22T04:25:20.384Z,7.30
2023-01-22T04:27:48.058Z,7.22
2023-01-22T04:30:18.759Z,5.82
2023-01-22T04:32:48.775Z,6.60
2023-01-22T04:35:40.043Z,6.75
2023-01-22T04:38:08.321Z,6.22
2023-01-22T04:40:35.940Z,6.43
2023-01-22T04:43:05.485Z,6.30
2023-01-22T04:45:34.024Z,5.95
2023-01-22T04:48:01.298Z,6.63
2023-01-22T04:50:32.776Z,5.68
2023-01-22T04:53:01.404Z,6.28
2023-01-22T04:55:29.864Z,7.22
2023-01-22T04:58:02.602Z,6.38
2023-01-22T05:00:30.987Z,6.68
2023-01-22T05:03:02.393Z,7.03
2023-01-22T05:05:31.724Z,6.18
2023-01-22T05:07:59.884Z,5.55
2023-01-22T05:10:28.390Z,5.88
2023-01-22T05:12:55.947Z,6.43
2023-01-22T05:15:25.447Z,6.28
2023-01-22T05:17:56.687Z,7.38
2023-01-22T05:20:25.583Z,6.15
2023-01-22T05:22:53.376Z,6.45
2023-01-22T05:25:24.988Z,6.22
2023-01-22T05:27:52.350Z,6.70
2023-01-22T05:30:31.531Z,7.00
2023-01-22T05:33:01.356Z,8.02
2023-01-22T05:35:29.939Z,7.90
2023-01-22T05:37:57.949Z,8.05
2023-01-22T05:40:25.695Z,7.65
2023-01-22T05:42:54.214Z,9.00
2023-01-22T05:45:22.383Z,8.57
2023-01-22T05:48:12.753Z,10.13
2023-01-22T05:50:49.748Z,9.43
2023-01-22T05:53:17.070Z,7.93
2023-01-22T05:55:44.680Z,8.52
2023-01-22T05:58:11.965Z,9.93
2023-01-22T06:00:42.697Z,9.82
2023-01-22T06:03:11.692Z,8.98
2023-01-22T06:05:46.774Z,9.60
2023-01-22T06:08:15.670Z,9.52
2023-01-22T06:10:50.599Z,9.90
2023-01-22T06:13:19.440Z,8.27
2023-01-22T06:15:50.677Z,7.10
2023-01-22T06:18:35.527Z,6.60
2023-01-22T06:21:06.012Z,6.75
2023-01-22T06:23:34.264Z,6.63
2023-01-22T06:26:03.380Z,6.82
2023-01-22T06:28:31.049Z,6.57
2023-01-22T06:31:08.195Z,7.80
2023-01-22T06:33:38.473Z,8.57
2023-01-22T06:36:06.593Z,9.40
2023-01-22T06:38:33.929Z,7.93
2023-01-22T06:41:04.336Z,8.40
2023-01-22T06:43:33.051Z,9.80
2023-01-22T06:46:00.601Z,8.32
2023-01-22T06:48:51.000Z,7.93
2023-01-22T06:51:18.566Z,7.95
2023-01-22T06:53:46.300Z,8.43
2023-01-22T06:56:13.935Z,7.57
2023-01-22T06:58:41.502Z,8.95
2023-01-22T07:01:09.931Z,8.88
2023-01-22T07:03:37.303Z,9.07
2023-01-22T07:06:05.396Z,7.63
2023-01-22T07:08:33.849Z,6.85
2023-01-22T07:11:01.690Z,6.43
2023-01-22T07:13:29.131Z,7.10
2023-01-22T07:15:56.744Z,6.97
2023-01-22T07:18:24.502Z,7.65
2023-01-22T07:20:52.103Z,7.13
2023-01-22T07:23:19.422Z,7.03
2023-01-22T07:25:46.959Z,8.07
2023-01-22T07:28:15.172Z,6.60
2023-01-22T07:30:44.341Z,7.93
2023-01-22T07:33:12.084Z,8.82
2023-01-22T07:35:40.493Z,9.35
2023-01-22T07:38:08.399Z,9.20
2023-01-22T07:40:36.285Z,10.43
2023-01-22T07:43:07.523Z,10.50
2023-01-22T07:45:35.629Z,10.02
2023-01-22T07:48:04.147Z,10.70
2023-01-22T07:50:32.393Z,9.63
2023-01-22T07:53:00.803Z,10.65
2023-01-22T07:55:28.628Z,12.68
2023-01-22T07:58:04.689Z,11.23
2023-01-22T08:00:35.395Z,11.35
2023-01-22T08:03:06.614Z,8.77
2023-01-22T08:05:34.227Z,9.40
2023-01-22T08:08:01.491Z,9.57
2023-01-22T08:10:29.199Z,10.00
2023-01-22T08:12:56.767Z,8.07
2023-01-22T08:15:24.880Z,8.27
2023-01-22T08:17:52.212Z,7.95
2023-01-22T08:20:20.123Z,10.70
2023-01-22T08:22:47.632Z,10.73
2023-01-22T08:25:15.443Z,9.60
2023-01-22T08:27:42.734Z,9.73
2023-01-22T08:30:15.899Z,7.78
2023-01-22T08:32:45.531Z,8.95
2023-01-22T08:35:14.031Z,8.15
2023-01-22T08:37:43.949Z,7.28
2023-01-22T08:40:12.017Z,7.90
2023-01-22T08:42:39.403Z,7.43
2023-01-22T08:45:08.445Z,8.27
2023-01-22T08:47:35.697Z,6.43
2023-01-22T08:50:04.041Z,5.80
2023-01-22T08:52:31.443Z,5.28
2023-01-22T08:54:59.064Z,6.45
2023-01-22T08:57:26.301Z,6.72
2023-01-22T09:00:01.076Z,5.93
2023-01-22T09:02:29.075Z,5.97
2023-01-22T09:04:57.342Z,5.38
2023-01-22T09:07:24.751Z,5.13
2023-01-22T09:09:52.334Z,5.00
2023-01-22T09:12:19.610Z,5.75
2023-01-22T09:14:47.280Z,5.22
2023-01-22T09:17:16.479Z,5.18
2023-01-22T09:19:44.004Z,5.00
2023-01-22T09:22:11.259Z,4.90
2023-01-22T09:24:38.795Z,5.25
2023-01-22T09:27:06.101Z,5.10
2023-01-22T09:29:33.653Z,4.90
2023-01-22T09:32:00.973Z,4.75
2023-01-22T09:34:28.789Z,4.25
2023-01-22T09:36:56.017Z,5.07
2023-01-22T09:39:23.552Z,5.18
2023-01-22T09:41:54.670Z,5.60
2023-01-22T09:44:28.801Z,5.35
2023-01-22T09:47:00.225Z,5.28
2023-01-22T09:49:52.510Z,6.18
2023-01-22T09:52:21.727Z,5.00
2023-01-22T09:54:49.386Z,5.43
2023-01-22T09:57:30.694Z,5.82
2023-01-22T09:59:59.189Z,5.93
2023-01-22T10:02:47.385Z,6.18
2023-01-22T10:05:31.620Z,6.40
2023-01-22T10:08:13.931Z,4.68
2023-01-22T10:10:41.881Z,5.28
2023-01-22T10:13:25.639Z,6.03
2023-01-22T10:15:55.577Z,6.00
2023-01-22T10:18:25.675Z,6.18
2023-01-22T10:20:55.419Z,5.78
2023-01-22T10:23:26.457Z,6.55
2023-01-22T10:26:04.537Z,5.95
2023-01-22T10:28:31.951Z,6.32
2023-01-22T10:30:59.668Z,5.47
2023-01-22T10:33:28.061Z,6.05
2023-01-22T10:35:57.289Z,6.20
2023-01-22T10:38:30.909Z,6.85
2023-01-22T10:41:03.137Z,5.72
2023-01-22T10:43:37.421Z,5.38
2023-01-22T10:46:05.226Z,6.95
2023-01-22T10:48:33.302Z,6.10
2023-01-22T10:51:14.185Z,5.43
2023-01-22T10:53:55.513Z,6.70
2023-01-22T10:56:40.439Z,6.18
2023-01-22T10:59:27.705Z,6.22
2023-01-22T11:02:01.138Z,6.07
2023-01-22T11:04:33.650Z,6.38
2023-01-22T11:07:20.758Z,6.38
2023-01-22T11:10:07.002Z,5.93
2023-01-22T11:12:39.963Z,7.47
2023-01-22T11:15:37.893Z,8.00
2023-01-22T11:18:07.328Z,9.20
2023-01-22T11:20:54.762Z,7.35
2023-01-22T11:23:49.245Z,9.45
2023-01-22T11:26:48.584Z,9.15
2023-01-22T11:29:34.305Z,7.13
2023-01-22T11:32:10.591Z,7.65
2023-01-22T11:34:58.168Z,8.18
2023-01-22T11:37:43.453Z,8.60
2023-01-22T11:40:23.801Z,7.70
2023-01-22T11:43:03.099Z,6.00
2023-01-22T11:45:50.644Z,5.63
2023-01-22T11:48:54.582Z,6.35
2023-01-22T11:52:03.761Z,6.72
2023-01-22T11:54:51.495Z,8.00
2023-01-22T11:57:43.616Z,7.32
2023-01-22T12:00:28.998Z,6.80
2023-01-22T12:03:11.789Z,6.03
2023-01-22T12:09:41.609Z,6.55
2023-01-22T12:12:24.599Z,6.00
2023-01-22T12:15:05.520Z,5.82
2023-01-22T12:17:51.253Z,6.33
2023-01-22T12:20:33.473Z,6.47
2023-01-22T12:23:33.955Z,7.35
2023-01-22T12:26:07.734Z,6.75
2023-01-22T12:28:46.241Z,7.35
2023-01-22T12:31:21.667Z,8.00
2023-01-22T12:33:49.362Z,6.95
2023-01-22T12:36:24.670Z,6.60
2023-01-22T12:39:07.219Z,6.70
2023-01-22T12:41:49.392Z,5.78
2023-01-22T12:44:29.016Z,6.57
2023-01-22T12:47:12.368Z,6.55
2023-01-22T12:49:51.715Z,5.97
2023-01-22T12:52:32.305Z,7.20
2023-01-22T12:55:01.438Z,6.03
2023-01-22T12:57:40.576Z,6.05
2023-01-22T13:00:36.408Z,6.53
2023-01-22T13:03:30.907Z,6.57
2023-01-22T13:06:01.725Z,6.70
2023-01-22T13:08:43.786Z,6.80
2023-01-22T13:11:29.036Z,6.50
2023-01-22T13:14:15.553Z,7.68
2023-01-22T13:16:51.825Z,7.03
2023-01-22T13:19:25.050Z,6.32
2023-01-22T13:21:53.655Z,5.85
2023-01-22T13:24:21.811Z,6.20
2023-01-22T13:27:01.176Z,7.13
2023-01-22T13:29:42.182Z,6.93
2023-01-22T13:32:18.821Z,7.40
2023-01-22T13:34:46.398Z,6.40
2023-01-22T13:37:35.710Z,6.43
2023-01-22T13:40:13.538Z,6.15
2023-01-22T13:42:45.318Z,7.43
2023-01-22T13:45:24.103Z,6.70
2023-01-22T13:47:57.831Z,6.47
2023-01-22T13:50:28.131Z,6.55
2023-01-22T13:53:01.089Z,5.65
2023-01-22T13:55:30.371Z,9.02
2023-01-22T13:58:01.662Z,6.00
2023-01-22T14:00:32.634Z,5.97
2023-01-22T14:03:01.528Z,6.32
2023-01-22T14:05:33.209Z,6.13
2023-01-22T14:08:26.980Z,7.43
2023-01-22T14:10:58.938Z,6.40
2023-01-22T14:13:26.776Z,6.45
2023-01-22T14:15:59.709Z,6.47
2023-01-22T14:18:30.679Z,6.47
2023-01-22T14:20:57.905Z,5.88
2023-01-22T14:23:25.583Z,6.10
2023-01-22T14:25:54.502Z,6.78
2023-01-22T14:28:23.814Z,6.25
2023-01-22T14:30:51.841Z,7.32
2023-01-22T14:33:25.351Z,6.07
2023-01-22T14:35:54.037Z,6.18
2023-01-22T14:38:23.007Z,6.65
2023-01-22T14:40:50.578Z,5.93
2023-01-22T14:43:18.250Z,6.25
2023-01-22T14:45:46.251Z,5.85
2023-01-22T14:48:18.331Z,7.63
2023-01-22T14:53:14.018Z,6.55
2023-01-22T14:55:42.683Z,5.80
2023-01-22T14:58:11.055Z,6.68
2023-01-22T15:00:39.325Z,6.97
2023-01-22T15:03:06.873Z,6.90
2023-01-22T15:05:35.738Z,7.03
2023-01-22T15:08:03.667Z,7.63
2023-01-22T15:10:30.901Z,8.25
2023-01-22T15:12:58.716Z,7.20
2023-01-22T15:15:28.455Z,7.22
2023-01-22T15:17:57.396Z,7.00
2023-01-22T15:20:25.519Z,6.85
2023-01-22T15:22:53.120Z,6.38
2023-01-22T15:25:20.539Z,6.60
2023-01-22T15:27:48.155Z,6.32
2023-01-22T15:30:15.827Z,6.40
2023-01-22T15:32:43.441Z,7.32
2023-01-22T15:35:10.826Z,7.20
2023-01-22T15:37:38.545Z,7.55
2023-01-22T15:40:06.660Z,7.18
2023-01-22T15:42:35.784Z,30.70
2023-01-22T15:45:04.759Z,7.18
2023-01-22T15:47:32.923Z,6.60
2023-01-22T15:50:00.191Z,5.90
2023-01-22T15:52:27.983Z,6.97
2023-01-22T15:54:55.435Z,6.38
2023-01-22T15:57:23.079Z,7.47
2023-01-22T15:59:57.436Z,6.30
2023-01-22T16:02:25.085Z,6.53
2023-01-22T16:04:52.393Z,6.45
2023-01-22T16:07:19.962Z,7.15
2023-01-22T16:09:47.246Z,7.35
2023-01-22T16:12:14.852Z,7.20
2023-01-22T16:14:42.109Z,7.03
2023-01-22T16:17:09.759Z,6.10
2023-01-22T16:19:37.082Z,6.68
2023-01-22T16:22:04.682Z,6.97
2023-01-22T16:24:31.949Z,6.60
2023-01-22T16:26:59.653Z,6.78
2023-01-22T16:29:27.040Z,6.88
2023-01-22T16:31:54.660Z,6.57
2023-01-22T16:34:21.997Z,6.50
2023-01-22T16:36:49.592Z,6.93
2023-01-22T16:39:22.227Z,7.18
2023-01-22T16:41:51.482Z,7.00
2023-01-22T16:44:24.603Z,7.97
2023-01-22T16:46:54.351Z,7.20
2023-01-22T16:49:26.615Z,6.32
2023-01-22T16:51:56.996Z,7.43
2023-01-22T16:54:32.721Z,6.75
2023-01-22T16:57:05.904Z,7.53
2023-01-22T16:59:35.306Z,6.72
2023-01-22T17:02:05.442Z,7.22
2023-01-22T17:04:32.816Z,6.57
2023-01-22T17:07:00.635Z,7.15
2023-01-22T17:09:31.329Z,7.45
2023-01-22T17:12:01.430Z,7.50
2023-01-22T17:14:30.993Z,6.15
2023-01-22T17:16:58.875Z,6.32
2023-01-22T17:19:26.576Z,5.60
2023-01-22T17:21:57.919Z,6.10
2023-01-22T17:24:26.924Z,6.07
2023-01-22T17:26:54.871Z,6.00
2023-01-22T17:29:22.454Z,4.68
2023-01-22T17:31:50.164Z,4.72
2023-01-22T17:34:18.479Z,5.22
2023-01-22T17:36:46.217Z,4.50
2023-01-22T17:39:16.069Z,4.55
2023-01-22T17:41:44.434Z,5.30
2023-01-22T17:44:12.112Z,5.03
2023-01-22T17:46:40.243Z,4.68
2023-01-22T17:49:07.659Z,4.40
2023-01-22T17:51:35.837Z,4.20
2023-01-22T17:54:04.340Z,3.10
2023-01-22T17:56:37.447Z,5.50
2023-01-22T17:59:07.354Z,6.05
2023-01-22T18:01:36.841Z,3.97
2023-01-22T18:04:06.912Z,4.47
2023-01-22T18:06:35.963Z,4.75
2023-01-22T18:09:05.650Z,4.75
2023-01-22T18:11:35.598Z,4.80
2023-01-22T18:14:16.718Z,4.65
2023-01-22T18:16:44.833Z,4.72
2023-01-22T18:19:12.187Z,4.95
2023-01-22T18:21:41.211Z,4.85
2023-01-22T18:24:10.937Z,4.13
2023-01-22T18:26:38.963Z,3.88
2023-01-22T18:29:06.730Z,4.60
2023-01-22T18:31:35.210Z,4.07
2023-01-22T18:34:05.200Z,5.53
2023-01-22T18:36:36.153Z,5.47
2023-01-22T18:39:06.401Z,3.85
2023-01-22T18:41:34.153Z,4.47
2023-01-22T18:44:02.621Z,4.28
2023-01-22T18:46:36.989Z,4.13
2023-01-22T18:49:07.234Z,4.35
2023-01-22T18:51:34.908Z,3.75
2023-01-22T18:54:05.036Z,3.60
2023-01-22T18:56:33.321Z,3.10
2023-01-22T18:59:01.088Z,2.83
2023-01-22T19:01:31.444Z,2.80
2023-01-22T19:04:01.093Z,2.85
2023-01-22T19:06:32.325Z,2.85
2023-01-22T19:09:03.853Z,2.90
2023-01-22T19:14:00.655Z,2.92
2023-01-22T19:16:29.338Z,2.83
2023-01-22T19:19:03.228Z,3.38
2023-01-22T19:21:31.484Z,2.80
2023-01-22T19:24:01.432Z,3.13
2023-01-22T19:26:31.703Z,3.22
2023-01-22T19:29:12.306Z,3.10
2023-01-22T19:31:43.112Z,2.92
2023-01-22T19:34:12.851Z,3.28
2023-01-22T19:36:40.512Z,3.75
2023-01-22T19:39:11.665Z,3.30
2023-01-22T19:41:40.691Z,4.13
2023-01-22T19:44:09.361Z,3.80
2023-01-22T19:46:38.628Z,4.55
2023-01-22T19:49:07.556Z,3.58
2023-01-22T19:51:35.587Z,3.53
2023-01-22T19:54:05.402Z,3.80
2023-01-22T19:56:36.232Z,2.80
2023-01-22T19:59:10.194Z,2.97
2023-01-22T20:01:39.238Z,2.95
2023-01-22T20:04:12.650Z,2.40
2023-01-22T20:06:40.239Z,3.28
2023-01-22T20:09:07.757Z,3.47
2023-01-22T20:11:35.414Z,3.28
2023-01-22T20:14:02.950Z,3.30
2023-01-22T20:16:30.674Z,3.20
2023-01-22T20:18:58.785Z,2.78
2023-01-22T20:21:27.232Z,3.67
2023-01-22T20:23:55.119Z,3.35
2023-01-22T20:26:23.352Z,3.35
2023-01-22T20:28:50.947Z,3.50
2023-01-22T20:31:23.377Z,3.00
2023-01-22T20:33:52.681Z,3.05
2023-01-22T20:36:21.668Z,3.85
2023-01-22T20:38:52.711Z,3.50
2023-01-22T20:41:22.190Z,3.85
2023-01-22T20:43:49.727Z,3.80
2023-01-22T20:46:23.227Z,3.30
2023-01-22T20:48:51.570Z,4.00
2023-01-22T20:51:22.199Z,3.28
2023-01-22T20:53:51.923Z,3.80
2023-01-22T20:56:22.776Z,3.55
2023-01-22T20:58:57.223Z,3.38
2023-01-22T21:01:25.783Z,3.35
2023-01-22T21:03:55.379Z,3.92
2023-01-22T21:06:23.178Z,3.55
2023-01-22T21:08:52.450Z,3.60
2023-01-22T21:11:21.229Z,3.67
2023-01-22T21:13:50.313Z,3.53
2023-01-22T21:16:23.178Z,3.30
2023-01-22T21:18:52.990Z,3.97
2023-01-22T21:21:21.116Z,3.95
2023-01-22T21:23:50.207Z,4.65
2023-01-22T21:26:22.792Z,4.75
2023-01-22T21:28:55.177Z,4.18
2023-01-22T21:31:23.932Z,3.42
2023-01-22T21:34:02.581Z,3.35
2023-01-22T21:36:34.370Z,3.80
2023-01-22T21:39:03.272Z,3.10
2023-01-22T21:41:30.867Z,3.47
2023-01-22T21:44:16.737Z,3.22
2023-01-22T21:46:45.826Z,3.63
2023-01-22T21:49:17.111Z,3.03
2023-01-22T21:51:47.699Z,3.00
2023-01-22T21:54:17.741Z,3.33
2023-01-22T21:56:45.556Z,2.95
2023-01-22T21:59:13.813Z,3.08
2023-01-22T22:01:41.869Z,3.67
2023-01-22T22:04:09.953Z,3.35
2023-01-22T22:06:38.453Z,2.88
2023-01-22T22:09:14.022Z,3.03
2023-01-22T22:11:42.324Z,3.08
2023-01-22T22:14:12.147Z,3.42
2023-01-22T22:16:39.727Z,4.68
2023-01-22T22:19:07.667Z,3.50
2023-01-22T22:21:36.113Z,3.05
2023-01-22T22:24:03.737Z,3.58
2023-01-22T22:26:31.566Z,3.92
2023-01-22T22:28:58.909Z,2.60
2023-01-22T22:31:26.596Z,3.35
2023-01-22T22:33:56.221Z,3.78
2023-01-22T22:36:26.157Z,2.97
2023-01-22T22:38:53.863Z,3.10
2023-01-22T22:41:30.477Z,3.58
2023-01-22T22:43:57.865Z,3.08
2023-01-22T22:46:32.360Z,2.92
2023-01-22T22:49:01.506Z,3.10
2023-01-22T22:51:32.093Z,3.40
2023-01-22T22:54:02.786Z,3.20
2023-01-22T22:56:30.770Z,3.65
2023-01-22T22:58:59.591Z,3.05
2023-01-22T23:01:29.337Z,3.38
2023-01-22T23:03:57.031Z,3.45
2023-01-22T23:06:29.004Z,4.32
2023-01-22T23:09:11.022Z,3.72
2023-01-22T23:11:39.377Z,3.00
2023-01-22T23:14:06.748Z,2.58
2023-01-22T23:16:41.947Z,2.80
2023-01-22T23:19:18.994Z,2.60
2023-01-22T23:21:49.874Z,3.17
2023-01-22T23:24:17.299Z,3.05
2023-01-22T23:26:45.832Z,2.97
2023-01-22T23:29:16.522Z,3.30
2023-01-22T23:31:44.476Z,3.45
2023-01-22T23:34:14.836Z,3.30
2023-01-22T23:36:45.255Z,2.80
2023-01-22T23:39:14.264Z,3.20
2023-01-22T23:41:42.798Z,3.47
2023-01-22T23:44:10.291Z,3.42
2023-01-22T23:46:38.823Z,3.67
2023-01-22T23:49:06.451Z,2.80
2023-01-22T23:51:33.990Z,3.08
2023-01-22T23:54:01.252Z,2.78
2023-01-22T23:56:32.700Z,2.47
2023-01-22T23:59:00.313Z,3.17
